createdAt,value
2023-06-15T00:00:31.919Z,16.60
2023-06-15T00:03:01.395Z,16.60
2023-06-15T00:05:29.792Z,16.60
2023-06-15T00:07:58.395Z,16.60
2023-06-15T00:10:27.926Z,16.60
2023-06-15T00:12:57.188Z,16.60
2023-06-15T00:15:30.006Z,16.60
2023-06-15T00:18:00.264Z,16.60
2023-06-15T00:20:29.790Z,16.60
2023-06-15T00:23:01.114Z,16.50
2023-06-15T00:25:29.763Z,16.50
2023-06-15T00:27:58.592Z,16.40
2023-06-15T00:30:27.907Z,16.30
2023-06-15T00:32:56.871Z,16.20
2023-06-15T00:35:27.124Z,16.20
2023-06-15T00:37:55.953Z,16.10
2023-06-15T00:40:26.928Z,16.00
2023-06-15T00:42:55.733Z,16.00
2023-06-15T00:45:25.206Z,15.90
2023-06-15T00:47:54.200Z,15.80
2023-06-15T00:50:24.373Z,15.80
2023-06-15T00:52:57.473Z,15.80
2023-06-15T00:55:26.953Z,15.70
2023-06-15T00:57:57.647Z,15.70
2023-06-15T01:00:26.136Z,15.70
2023-06-15T01:02:57.829Z,15.60
2023-06-15T01:05:27.159Z,15.70
2023-06-15T01:08:03.381Z,15.70
2023-06-15T01:10:32.840Z,15.60
2023-06-15T01:13:05.109Z,15.70
2023-06-15T01:15:35.033Z,15.60
2023-06-15T01:18:06.539Z,15.60
2023-06-15T01:20:40.874Z,15.60
2023-06-15T01:23:34.706Z,15.60
2023-06-15T01:26:10.594Z,15.60
2023-06-15T01:28:43.132Z,15.60
2023-06-15T01:31:12.610Z,15.70
2023-06-15T01:33:49.053Z,15.70
2023-06-15T01:36:18.874Z,15.70
2023-06-15T01:38:52.304Z,15.70
2023-06-15T01:41:25.958Z,15.70
2023-06-15T01:43:55.058Z,15.70
2023-06-15T01:46:27.116Z,15.70
2023-06-15T01:48:56.711Z,15.70
2023-06-15T01:51:26.592Z,15.60
2023-06-15T01:53:55.246Z,15.50
2023-06-15T01:56:26.742Z,15.40
2023-06-15T01:58:55.118Z,15.30
2023-06-15T02:01:23.913Z,15.30
2023-06-15T02:03:54.716Z,15.30
2023-06-15T02:06:23.902Z,15.20
2023-06-15T02:08:52.869Z,15.20
2023-06-15T02:11:21.385Z,15.20
2023-06-15T02:13:51.673Z,15.20
2023-06-15T02:16:21.087Z,15.20
2023-06-15T02:18:50.157Z,15.20
2023-06-15T02:21:20.362Z,15.20
2023-06-15T02:23:51.926Z,15.10
2023-06-15T02:26:21.750Z,15.20
2023-06-15T02:28:51.528Z,15.10
2023-06-15T02:31:20.587Z,15.20
2023-06-15T02:33:49.688Z,15.10
2023-06-15T02:36:20.759Z,15.20
2023-06-15T02:38:50.048Z,15.20
2023-06-15T02:41:19.982Z,15.20
2023-06-15T02:43:48.299Z,15.10
2023-06-15T02:46:18.948Z,15.20
2023-06-15T02:48:53.002Z,15.20
2023-06-15T02:51:23.733Z,15.20
2023-06-15T02:53:52.556Z,15.20
2023-06-15T02:56:22.703Z,15.30
2023-06-15T02:58:55.984Z,15.30
2023-06-15T03:01:54.040Z,15.30
2023-06-15T03:04:25.198Z,15.30
2023-06-15T03:06:58.445Z,15.30
2023-06-15T03:09:42.290Z,15.20
2023-06-15T03:12:12.040Z,15.20
2023-06-15T03:14:45.627Z,15.10
2023-06-15T03:17:16.584Z,15.10
2023-06-15T03:19:49.130Z,14.90
2023-06-15T03:22:21.056Z,14.90
2023-06-15T03:24:50.747Z,14.80
2023-06-15T03:27:21.074Z,14.70
2023-06-15T03:29:51.014Z,14.70
2023-06-15T03:32:21.582Z,14.60
2023-06-15T03:34:51.097Z,14.50
2023-06-15T03:37:20.149Z,14.50
2023-06-15T03:39:50.947Z,14.40
2023-06-15T03:42:20.274Z,14.40
2023-06-15T03:44:49.037Z,14.40
2023-06-15T03:47:17.356Z,14.40
2023-06-15T03:49:47.850Z,14.30
2023-06-15T03:52:17.241Z,14.30
2023-06-15T03:54:46.220Z,14.30
2023-06-15T03:57:15.074Z,14.20
2023-06-15T03:59:43.700Z,14.10
2023-06-15T04:02:13.966Z,14.10
2023-06-15T04:04:42.982Z,14.10
2023-06-15T04:07:14.290Z,14.20
2023-06-15T04:09:43.318Z,14.20
2023-06-15T04:12:13.186Z,14.20
2023-06-15T04:14:43.400Z,14.20
2023-06-15T04:17:11.964Z,14.30
2023-06-15T04:19:40.828Z,14.40
2023-06-15T04:22:12.801Z,14.50
2023-06-15T04:24:41.646Z,14.60
2023-06-15T04:27:13.965Z,14.70
2023-06-15T04:29:51.410Z,14.70
2023-06-15T04:32:20.782Z,14.70
2023-06-15T04:34:49.065Z,14.80
2023-06-15T04:37:20.088Z,14.80
2023-06-15T04:39:50.633Z,14.90
2023-06-15T04:42:21.363Z,15.00
2023-06-15T04:44:49.958Z,15.00
2023-06-15T04:47:18.543Z,15.10
2023-06-15T04:49:48.033Z,15.20
2023-06-15T04:52:17.204Z,15.30
2023-06-15T04:54:47.730Z,15.30
2023-06-15T04:57:16.675Z,15.40
2023-06-15T04:59:45.794Z,15.50
2023-06-15T05:02:17.730Z,15.70
2023-06-15T05:04:50.555Z,15.80
2023-06-15T05:07:20.752Z,15.80
2023-06-15T05:09:53.899Z,16.00
2023-06-15T05:12:29.243Z,16.10
2023-06-15T05:14:58.047Z,16.20
2023-06-15T05:17:27.706Z,16.40
2023-06-15T05:19:56.224Z,16.50
2023-06-15T05:22:25.261Z,16.60
2023-06-15T05:24:55.125Z,16.70
2023-06-15T05:27:24.020Z,16.90
2023-06-15T05:29:55.287Z,17.00
2023-06-15T05:32:25.432Z,17.20
2023-06-15T05:34:53.909Z,17.30
2023-06-15T05:37:23.294Z,17.50
2023-06-15T05:39:54.565Z,17.70
2023-06-15T05:42:22.968Z,17.80
2023-06-15T05:44:53.554Z,18.00
2023-06-15T05:47:22.699Z,18.10
2023-06-15T05:49:52.081Z,18.30
2023-06-15T05:52:20.936Z,18.40
2023-06-15T05:54:50.061Z,18.50
2023-06-15T05:57:20.026Z,18.60
2023-06-15T05:59:48.761Z,18.70
2023-06-15T06:02:19.284Z,18.80
2023-06-15T06:04:48.979Z,19.00
2023-06-15T06:07:19.916Z,19.00
2023-06-15T06:09:51.248Z,19.10
2023-06-15T06:12:22.558Z,19.30
2023-06-15T06:14:50.982Z,19.50
2023-06-15T06:17:43.007Z,19.60
2023-06-15T06:20:11.612Z,19.60
2023-06-15T06:22:40.732Z,19.70
2023-06-15T06:25:09.972Z,19.90
2023-06-15T06:27:40.938Z,20.00
2023-06-15T06:30:10.451Z,20.00
2023-06-15T06:32:40.010Z,20.10
2023-06-15T06:35:09.546Z,20.10
2023-06-15T06:37:38.420Z,20.20
2023-06-15T06:40:09.131Z,20.30
2023-06-15T06:42:38.709Z,20.50
2023-06-15T06:45:11.674Z,20.60
2023-06-15T06:47:40.924Z,20.70
2023-06-15T06:50:10.345Z,20.80
2023-06-15T06:52:39.256Z,21.00
2023-06-15T06:55:09.859Z,21.10
2023-06-15T06:57:38.494Z,21.20
2023-06-15T07:00:11.762Z,21.30
2023-06-15T07:02:40.291Z,21.50
2023-06-15T07:05:09.167Z,21.60
2023-06-15T07:07:37.934Z,21.70
2023-06-15T07:10:08.350Z,21.80
2023-06-15T07:12:36.902Z,21.90
2023-06-15T07:15:06.664Z,22.00
2023-06-15T07:17:37.499Z,22.10
2023-06-15T07:20:10.321Z,22.20
2023-06-15T07:22:38.863Z,22.30
2023-06-15T07:25:08.224Z,22.30
2023-06-15T07:27:38.223Z,22.40
2023-06-15T07:30:08.644Z,22.50
2023-06-15T07:32:38.664Z,22.60
2023-06-15T07:35:08.781Z,22.70
2023-06-15T07:37:37.579Z,22.80
2023-06-15T07:40:09.938Z,22.90
2023-06-15T07:42:40.335Z,23.00
2023-06-15T07:45:12.760Z,23.10
2023-06-15T07:47:43.581Z,23.20
2023-06-15T07:50:12.880Z,23.30
2023-06-15T07:52:42.125Z,23.40
2023-06-15T07:55:13.584Z,23.50
2023-06-15T07:57:42.474Z,23.70
2023-06-15T08:00:13.663Z,23.70
2023-06-15T08:02:44.132Z,23.90
2023-06-15T08:05:13.327Z,24.00
2023-06-15T08:07:42.059Z,24.10
2023-06-15T08:10:12.821Z,24.20
2023-06-15T08:12:41.844Z,24.30
2023-06-15T08:15:11.941Z,24.40
2023-06-15T08:17:40.242Z,24.40
2023-06-15T08:20:14.683Z,24.60
2023-06-15T08:22:43.431Z,24.70
2023-06-15T08:25:13.494Z,24.70
2023-06-15T08:27:44.111Z,24.80
2023-06-15T08:30:16.026Z,24.70
2023-06-15T08:32:45.615Z,24.70
2023-06-15T08:35:19.362Z,24.70
2023-06-15T08:37:49.310Z,24.90
2023-06-15T08:40:20.523Z,25.00
2023-06-15T08:42:49.508Z,25.10
2023-06-15T08:45:20.553Z,25.20
2023-06-15T08:47:50.509Z,25.40
2023-06-15T08:50:25.306Z,25.50
2023-06-15T08:52:53.820Z,25.60
2023-06-15T08:55:28.022Z,25.50
2023-06-15T08:57:58.347Z,25.70
2023-06-15T09:00:29.384Z,25.60
2023-06-15T09:03:03.139Z,25.70
2023-06-15T09:05:35.406Z,25.80
2023-06-15T09:08:05.035Z,25.90
2023-06-15T09:10:39.720Z,26.10
2023-06-15T09:13:08.536Z,26.20
2023-06-15T09:15:37.802Z,26.10
2023-06-15T09:18:07.938Z,25.90
2023-06-15T09:20:42.024Z,25.70
2023-06-15T09:23:14.649Z,25.60
2023-06-15T09:25:54.164Z,25.80
2023-06-15T09:28:24.808Z,26.00
2023-06-15T09:30:56.864Z,26.30
2023-06-15T09:33:26.732Z,26.30
2023-06-15T09:36:03.070Z,26.50
2023-06-15T09:38:34.265Z,26.60
2023-06-15T09:41:07.941Z,26.70
2023-06-15T09:43:38.814Z,26.80
2023-06-15T09:46:13.032Z,26.70
2023-06-15T09:48:44.636Z,26.70
2023-06-15T09:51:18.206Z,26.70
2023-06-15T09:53:48.191Z,26.90
2023-06-15T09:56:29.630Z,27.00
2023-06-15T09:59:03.435Z,27.10
2023-06-15T10:01:42.838Z,27.40
2023-06-15T10:04:14.033Z,27.70
2023-06-15T10:06:47.031Z,27.90
2023-06-15T10:09:26.471Z,28.00
2023-06-15T10:12:03.858Z,28.10
2023-06-15T10:14:40.796Z,28.00
2023-06-15T10:17:13.400Z,27.80
2023-06-15T10:19:48.374Z,27.70
2023-06-15T10:22:21.620Z,28.10
2023-06-15T10:24:51.821Z,28.30
2023-06-15T10:27:23.067Z,28.60
2023-06-15T10:30:05.905Z,28.70
2023-06-15T10:32:45.814Z,29.10
2023-06-15T10:35:23.362Z,29.20
2023-06-15T10:38:07.476Z,29.20
2023-06-15T10:40:42.827Z,29.00
2023-06-15T10:43:19.085Z,28.80
2023-06-15T10:45:48.358Z,29.10
2023-06-15T10:48:28.880Z,29.10
2023-06-15T10:51:07.398Z,29.20
2023-06-15T10:53:46.987Z,29.60
2023-06-15T10:56:19.316Z,29.50
2023-06-15T10:58:58.554Z,29.30
2023-06-15T11:01:30.132Z,28.90
2023-06-15T11:04:04.099Z,28.70
2023-06-15T11:06:35.136Z,28.60
2023-06-15T11:09:08.538Z,28.20
2023-06-15T11:11:39.700Z,27.70
2023-06-15T11:14:10.701Z,27.50
2023-06-15T11:16:42.252Z,27.40
2023-06-15T11:19:29.721Z,27.30
2023-06-15T11:22:03.341Z,27.60
2023-06-15T11:24:39.506Z,27.90
2023-06-15T11:27:11.209Z,28.30
2023-06-15T11:29:42.282Z,28.80
2023-06-15T11:32:16.310Z,29.20
2023-06-15T11:34:44.603Z,29.60
2023-06-15T11:37:16.279Z,30.00
2023-06-15T11:39:47.906Z,30.30
2023-06-15T11:42:17.124Z,30.30
2023-06-15T11:44:51.117Z,30.20
2023-06-15T11:47:23.710Z,30.40
2023-06-15T11:49:52.882Z,30.30
2023-06-15T11:52:23.873Z,30.00
2023-06-15T11:54:58.454Z,29.80
2023-06-15T11:57:28.170Z,29.30
2023-06-15T11:59:58.952Z,29.10
2023-06-15T12:02:28.562Z,28.90
2023-06-15T12:04:58.937Z,28.30
2023-06-15T12:07:36.254Z,28.10
2023-06-15T12:10:13.009Z,27.90
2023-06-15T12:12:42.877Z,27.70
2023-06-15T12:15:12.506Z,27.90
2023-06-15T12:17:43.555Z,27.90
2023-06-15T12:20:15.263Z,28.20
2023-06-15T12:22:47.310Z,27.90
2023-06-15T12:25:18.088Z,27.80
2023-06-15T12:27:49.153Z,27.60
2023-06-15T12:30:20.775Z,27.60
2023-06-15T12:32:51.065Z,27.50
2023-06-15T12:35:39.176Z,27.10
2023-06-15T12:38:11.823Z,27.10
2023-06-15T12:40:44.418Z,27.00
2023-06-15T12:43:14.424Z,26.90
2023-06-15T12:45:45.602Z,26.80
2023-06-15T12:48:14.597Z,26.80
2023-06-15T12:50:44.227Z,26.90
2023-06-15T12:53:13.680Z,27.30
2023-06-15T12:55:44.148Z,27.60
2023-06-15T12:58:13.982Z,27.70
2023-06-15T13:00:45.290Z,27.50
2023-06-15T13:03:15.602Z,27.50
2023-06-15T13:05:44.328Z,27.60
2023-06-15T13:08:15.624Z,27.70
2023-06-15T13:10:46.481Z,27.80
2023-06-15T13:13:15.000Z,28.00
2023-06-15T13:15:46.582Z,27.90
2023-06-15T13:18:15.916Z,27.80
2023-06-15T13:20:45.098Z,27.50
2023-06-15T13:23:16.406Z,27.50
2023-06-15T13:25:46.928Z,27.50
2023-06-15T13:28:16.533Z,27.70
2023-06-15T13:30:46.832Z,27.90
2023-06-15T13:33:15.373Z,28.20
2023-06-15T13:35:44.684Z,28.50
2023-06-15T13:38:14.850Z,28.70
2023-06-15T13:40:45.655Z,28.90
2023-06-15T13:43:17.024Z,28.90
2023-06-15T13:45:45.514Z,28.90
2023-06-15T13:48:14.316Z,29.10
2023-06-15T13:50:43.011Z,29.10
2023-06-15T13:53:12.057Z,29.20
2023-06-15T13:55:43.473Z,29.20
2023-06-15T13:58:11.808Z,28.90
2023-06-15T14:00:41.923Z,28.90
2023-06-15T14:03:11.156Z,28.80
2023-06-15T14:05:39.687Z,28.80
2023-06-15T14:08:08.300Z,28.90
2023-06-15T14:10:37.641Z,29.10
2023-06-15T14:13:08.884Z,29.10
2023-06-15T14:15:41.653Z,29.20
2023-06-15T14:18:11.078Z,29.30
2023-06-15T14:20:43.079Z,29.30
2023-06-15T14:23:12.507Z,29.40
2023-06-15T14:25:42.635Z,29.40
2023-06-15T14:28:13.542Z,29.30
2023-06-15T14:30:45.065Z,29.20
2023-06-15T14:33:19.114Z,29.00
2023-06-15T14:35:49.405Z,29.00
2023-06-15T14:38:19.315Z,29.10
2023-06-15T14:40:48.586Z,29.20
2023-06-15T14:43:17.243Z,29.10
2023-06-15T14:45:47.561Z,29.20
2023-06-15T14:48:16.252Z,29.30
2023-06-15T14:50:46.703Z,29.30
2023-06-15T14:53:15.117Z,29.30
2023-06-15T14:55:43.521Z,29.10
2023-06-15T14:58:13.666Z,29.10
2023-06-15T15:00:42.333Z,29.00
2023-06-15T15:03:12.614Z,28.80
2023-06-15T15:05:42.081Z,28.80
2023-06-15T15:08:10.591Z,28.80
2023-06-15T15:10:39.663Z,28.90
2023-06-15T15:13:09.191Z,28.70
2023-06-15T15:15:39.117Z,28.70
2023-06-15T15:18:08.112Z,28.70
2023-06-15T15:20:41.433Z,28.60
2023-06-15T15:23:10.067Z,28.60
2023-06-15T15:25:38.834Z,28.50
2023-06-15T15:28:07.898Z,28.40
2023-06-15T15:30:37.468Z,28.30
2023-06-15T15:33:06.910Z,28.30
2023-06-15T15:35:35.573Z,28.30
2023-06-15T15:38:07.937Z,28.00
2023-06-15T15:40:36.841Z,28.00
2023-06-15T15:43:05.353Z,28.10
2023-06-15T15:45:34.383Z,28.10
2023-06-15T15:48:09.953Z,28.10
2023-06-15T15:50:41.608Z,28.10
2023-06-15T15:53:20.560Z,28.00
2023-06-15T15:55:49.970Z,28.00
2023-06-15T15:58:19.682Z,27.90
2023-06-15T16:00:57.612Z,27.70
2023-06-15T16:03:26.424Z,27.40
2023-06-15T16:05:56.464Z,27.40
2023-06-15T16:08:26.578Z,27.40
2023-06-15T16:10:55.080Z,27.30
2023-06-15T16:13:23.497Z,27.30
2023-06-15T16:16:08.210Z,27.30
2023-06-15T16:18:41.087Z,27.40
2023-06-15T16:21:10.257Z,27.40
2023-06-15T16:23:40.845Z,27.40
2023-06-15T16:26:10.543Z,27.50
2023-06-15T16:28:40.448Z,27.40
2023-06-15T16:31:09.073Z,27.40
2023-06-15T16:33:39.185Z,27.40
2023-06-15T16:36:08.424Z,27.40
2023-06-15T16:38:37.667Z,27.50
2023-06-15T16:41:08.374Z,27.40
2023-06-15T16:43:39.538Z,27.40
2023-06-15T16:46:08.079Z,27.40
2023-06-15T16:48:36.539Z,27.40
2023-06-15T16:51:08.098Z,27.30
2023-06-15T16:53:36.911Z,27.20
2023-06-15T16:56:07.592Z,27.10
2023-06-15T16:58:36.526Z,27.10
2023-06-15T17:01:05.321Z,27.00
2023-06-15T17:03:34.401Z,27.00
2023-06-15T17:06:04.998Z,27.00
2023-06-15T17:08:33.933Z,26.90
2023-06-15T17:11:03.368Z,26.80
2023-06-15T17:13:35.463Z,26.70
2023-06-15T17:16:04.389Z,26.60
2023-06-15T17:18:33.114Z,26.50
2023-06-15T17:21:01.636Z,26.50
2023-06-15T17:23:32.694Z,26.40
2023-06-15T17:26:01.117Z,26.40
2023-06-15T17:28:32.878Z,26.30
2023-06-15T17:31:01.434Z,26.30
2023-06-15T17:33:31.023Z,26.20
2023-06-15T17:36:00.157Z,26.20
2023-06-15T17:38:30.207Z,26.10
2023-06-15T17:41:01.101Z,26.10
2023-06-15T17:43:30.040Z,26.00
2023-06-15T17:46:00.380Z,25.90
2023-06-15T17:48:29.068Z,25.90
2023-06-15T17:50:58.710Z,25.80
2023-06-15T17:53:28.761Z,25.80
2023-06-15T17:56:00.757Z,25.70
2023-06-15T17:58:32.060Z,25.70
2023-06-15T18:01:02.621Z,25.60
2023-06-15T18:03:32.781Z,25.50
2023-06-15T18:06:01.113Z,25.40
2023-06-15T18:08:29.853Z,25.30
2023-06-15T18:11:01.259Z,25.20
2023-06-15T18:13:30.424Z,25.00
2023-06-15T18:16:00.800Z,25.00
2023-06-15T18:18:31.460Z,24.90
2023-06-15T18:21:00.954Z,24.80
2023-06-15T18:23:29.956Z,24.70
2023-06-15T18:25:59.113Z,24.50
2023-06-15T18:28:29.140Z,24.40
2023-06-15T18:30:57.902Z,24.40
2023-06-15T18:33:27.813Z,24.20
2023-06-15T18:35:58.425Z,24.10
2023-06-15T18:38:28.204Z,24.00
2023-06-15T18:40:57.347Z,23.90
2023-06-15T18:43:25.895Z,23.80
2023-06-15T18:45:54.413Z,23.70
2023-06-15T18:48:25.341Z,23.60
2023-06-15T18:50:56.235Z,23.50
2023-06-15T18:53:29.890Z,23.50
2023-06-15T18:55:59.966Z,23.40
2023-06-15T18:58:28.711Z,23.30
2023-06-15T19:00:57.106Z,23.20
2023-06-15T19:03:26.904Z,23.10
2023-06-15T19:05:55.956Z,23.00
2023-06-15T19:08:26.885Z,22.90
2023-06-15T19:10:57.829Z,22.80
2023-06-15T19:13:26.596Z,22.70
2023-06-15T19:15:57.210Z,22.60
2023-06-15T19:18:25.818Z,22.50
2023-06-15T19:20:55.711Z,22.40
2023-06-15T19:23:26.569Z,22.30
2023-06-15T19:25:55.486Z,22.20
2023-06-15T19:28:25.414Z,22.10
2023-06-15T19:30:54.157Z,22.00
2023-06-15T19:33:22.937Z,21.90
2023-06-15T19:35:52.761Z,21.80
2023-06-15T19:38:21.916Z,21.70
2023-06-15T19:40:54.807Z,21.60
2023-06-15T19:43:28.186Z,21.60
2023-06-15T19:46:01.012Z,21.50
2023-06-15T19:48:30.956Z,21.40
2023-06-15T19:50:59.933Z,21.30
2023-06-15T19:53:32.265Z,21.20
2023-06-15T19:56:07.028Z,21.10
2023-06-15T19:58:36.642Z,21.00
2023-06-15T20:01:06.526Z,20.90
2023-06-15T20:03:39.606Z,20.80
2023-06-15T20:06:10.227Z,20.70
2023-06-15T20:08:40.516Z,20.60
2023-06-15T20:11:12.960Z,20.50
2023-06-15T20:13:42.124Z,20.50
2023-06-15T20:16:16.220Z,20.40
2023-06-15T20:18:51.113Z,20.30
2023-06-15T20:21:21.889Z,20.20
2023-06-15T20:23:51.390Z,20.00
2023-06-15T20:26:21.957Z,20.00
2023-06-15T20:28:50.674Z,19.90
2023-06-15T20:31:19.741Z,19.80
2023-06-15T20:33:50.068Z,19.70
2023-06-15T20:36:19.126Z,19.70
2023-06-15T20:38:47.862Z,19.60
2023-06-15T20:41:16.412Z,19.40
2023-06-15T20:43:48.051Z,19.40
2023-06-15T20:46:20.550Z,19.30
2023-06-15T20:48:50.206Z,19.20
2023-06-15T20:51:19.785Z,19.10
2023-06-15T20:53:48.478Z,19.00
2023-06-15T20:56:16.900Z,18.90
2023-06-15T20:58:47.288Z,18.80
2023-06-15T21:01:16.185Z,18.80
2023-06-15T21:03:45.054Z,18.70
2023-06-15T21:06:13.465Z,18.60
2023-06-15T21:08:42.696Z,18.50
2023-06-15T21:11:11.450Z,18.50
2023-06-15T21:13:39.775Z,18.40
2023-06-15T21:16:12.355Z,18.30
2023-06-15T21:18:42.115Z,18.20
2023-06-15T21:21:11.293Z,18.20
2023-06-15T21:23:39.771Z,18.10
2023-06-15T21:26:08.224Z,18.00
2023-06-15T21:28:36.629Z,17.90
2023-06-15T21:31:05.654Z,17.80
2023-06-15T21:33:36.395Z,17.70
2023-06-15T21:36:05.631Z,17.60
2023-06-15T21:38:35.069Z,17.50
2023-06-15T21:41:06.024Z,17.40
2023-06-15T21:43:36.348Z,17.30
2023-06-15T21:46:08.216Z,17.30
2023-06-15T21:48:38.930Z,17.20
2023-06-15T21:51:07.960Z,17.10
2023-06-15T21:53:38.918Z,17.10
2023-06-15T21:56:08.725Z,17.00
2023-06-15T21:58:36.979Z,17.00
2023-06-15T22:01:05.771Z,16.90
2023-06-15T22:03:34.900Z,16.80
2023-06-15T22:06:04.600Z,16.80
2023-06-15T22:08:35.015Z,16.70
2023-06-15T22:11:03.834Z,16.60
2023-06-15T22:13:35.533Z,16.60
2023-06-15T22:16:04.027Z,16.50
2023-06-15T22:18:34.602Z,16.40
2023-06-15T22:21:06.860Z,16.30
2023-06-15T22:23:35.656Z,16.20
2023-06-15T22:26:06.229Z,16.10
2023-06-15T22:28:35.098Z,16.10
2023-06-15T22:31:03.947Z,16.00
2023-06-15T22:33:33.030Z,15.90
2023-06-15T22:36:01.633Z,15.90
2023-06-15T22:38:34.810Z,15.80
2023-06-15T22:41:03.538Z,15.70
2023-06-15T22:43:33.282Z,15.70
2023-06-15T22:46:02.574Z,15.70
2023-06-15T22:48:37.579Z,15.60
2023-06-15T22:51:06.022Z,15.50
2023-06-15T22:53:35.989Z,15.50
2023-06-15T22:56:05.075Z,15.40
2023-06-15T22:58:33.746Z,15.40
2023-06-15T23:01:02.318Z,15.40
2023-06-15T23:03:31.144Z,15.30
2023-06-15T23:06:00.395Z,15.20
2023-06-15T23:08:32.031Z,15.20
2023-06-15T23:11:04.221Z,15.10
2023-06-15T23:13:37.448Z,15.00
2023-06-15T23:16:08.305Z,15.00
2023-06-15T23:18:38.306Z,14.90
2023-06-15T23:21:10.504Z,14.90
2023-06-15T23:26:30.862Z,14.80
2023-06-15T23:29:00.897Z,14.70
2023-06-15T23:31:31.630Z,14.70
2023-06-15T23:33:59.976Z,14.60
2023-06-15T23:36:28.626Z,14.60
2023-06-15T23:38:57.053Z,14.50
2023-06-15T23:41:25.377Z,14.50
2023-06-15T23:43:55.908Z,14.50
2023-06-15T23:46:26.116Z,14.40
2023-06-15T23:48:54.864Z,14.40
2023-06-15T23:51:26.012Z,14.30
2023-06-15T23:53:54.799Z,14.30
2023-06-15T23:56:23.307Z,14.30
2023-06-15T23:58:51.779Z,14.20
